« 三重城2 那覇港 2016/6/11 sat | トップページ | ひこうきの丘 成田国際空港 2016/6/28 tue »

2016/07/10

帰路 JJP302 2016/6/12 sun

昨晩からずっと雨・・ 早朝から那覇空港に向かい帰路につきます。

ROAH 112130Z 22013KT 3000 +SHRA FEW010 SCT015 FEW020CB BKN080 26/25 Q1008 RMK 1CU010 3CU015 2CB020 5AC080 A2978 CB 15KM W-N MOV NE

20160612_jjp302_00ja8999

やっば、南西航空やね

20160612_jjp302_01ja8939

タグもおそろい

20160612_jjp302_02jjp302

帰りも橙の成田行き

20160612_jjp302_03ja8995

JTA551 ROAH-ROMY JA8995 B737-446

搭乗。雨が滴っています。

ROAH 112200Z 22015KT 1500 R18/P1800N +SHRA FEW007 SCT015 SCT020CB BKN025 26/25 Q1008 RMK 2ST007 3CU015 3CB020 5CU025 A2979 CB OHD MOV NE

20160612_jjp302_04ja8674

ANA1200 ROAH-RJFF JA8674 B767-381

20160612_jjp302_05ja8939

JTA601 ROAH-ROIG JA8939 B737-4Q3

ROAH 112230Z 21017KT 3000 +SHRA FEW005 SCT015 SCT020CB BKN025 26/25 Q1008

20160612_jjp302_06ja8525

JTA2 ROAH-RJBB JA8525 B737-4Q3

20160612_jjp302_07roah

RW18にラインアップ

20160612_jjp302_08roah

低い雲が立ち込めて、地上を見るのは無理

20160612_jjp302_09jjp302

巡航は、オントップでしたが、途中CBをディベーション

20160612_jjp302_10rjaz

伊豆諸島神津島の神津島空港を視認

20160612_jjp302_11rjaa

富士山を見ると、ホットします。

RJAA 120030Z 11006KT 060V170 9999 FEW020 SCT025 BKN/// 25/18 Q1013 NOSIG RMK 1CU020 3CU025 A2994

20160612_jjp302_12rjaa

九十九里からフィートドライ

20160612_jjp302_13rjaa

成田は、RW16。雲間から第2ターミナルを一望

20160612_jjp302_14rjaa

霞ヶ浦上空を通って、利根川を横切ります。

20160612_jjp302_15rjaa

ファイナルで東関東道。

20160612_jjp302_16rjaa

RW16Lにランディング

20160612_jjp302_17t2

2タミフィンガーを見ながら・・

20160612_jjp302_18ja07jj

JA07JJ わっ、乗機を撮っておらん・・ 乗機は、 JA17JJ

20160612_jjp302_19ja839j

3タミ国際線共用スポットに到着。お隣は、JA839J

RJAA 120100Z 13007KT 100V160 9999 FEW020 BKN/// 25/19 Q1013 NOSIG

足早に行ってきた沖縄でした。

|

« 三重城2 那覇港 2016/6/11 sat | トップページ | ひこうきの丘 成田国際空港 2016/6/28 tue »

そら」カテゴリの記事

成田国際空港」カテゴリの記事

那覇空港」カテゴリの記事

空撮」カテゴリの記事

コメント

コメントを書く



(ウェブ上には掲載しません)


コメントは記事投稿者が公開するまで表示されません。



トラックバック


この記事へのトラックバック一覧です: 帰路 JJP302 2016/6/12 sun:

« 三重城2 那覇港 2016/6/11 sat | トップページ | ひこうきの丘 成田国際空港 2016/6/28 tue »